createdAt,value
2022-10-19T00:01:23.984Z,7.70
2022-10-19T00:03:57.112Z,7.50
2022-10-19T00:06:36.751Z,7.60
2022-10-19T00:09:17.015Z,7.30
2022-10-19T00:11:50.436Z,7.70
2022-10-19T00:14:23.986Z,7.27
2022-10-19T00:16:55.639Z,6.80
2022-10-19T00:19:29.167Z,6.70
2022-10-19T00:21:59.814Z,6.57
2022-10-19T00:24:27.560Z,6.60
2022-10-19T00:26:55.120Z,7.10
2022-10-19T00:29:23.629Z,7.53
2022-10-19T00:31:52.642Z,6.77
2022-10-19T00:34:20.414Z,7.17
2022-10-19T00:36:49.120Z,7.00
2022-10-19T00:39:19.255Z,6.03
2022-10-19T00:41:48.669Z,5.90
2022-10-19T00:44:16.255Z,6.80
2022-10-19T00:46:50.681Z,5.60
2022-10-19T00:49:30.526Z,5.73
2022-10-19T00:52:10.682Z,6.00
2022-10-19T00:54:44.280Z,5.90
2022-10-19T00:57:13.679Z,6.63
2022-10-19T00:59:47.453Z,6.50
2022-10-19T01:02:15.682Z,6.13
2022-10-19T01:04:52.030Z,6.17
2022-10-19T01:07:21.432Z,6.03
2022-10-19T01:09:49.297Z,6.70
2022-10-19T01:12:57.583Z,6.30
2022-10-19T01:16:12.205Z,6.07
2022-10-19T01:19:44.901Z,5.70
2022-10-19T01:23:17.506Z,6.70
2022-10-19T01:26:38.984Z,8.00
2022-10-19T01:30:08.054Z,6.50
2022-10-19T01:33:28.958Z,6.17
2022-10-19T01:36:32.223Z,6.30
2022-10-19T01:39:49.780Z,7.63
2022-10-19T01:42:58.907Z,7.30
2022-10-19T01:45:56.449Z,6.87
2022-10-19T01:48:41.143Z,7.07
2022-10-19T01:51:23.269Z,6.23
2022-10-19T01:53:59.804Z,6.97
2022-10-19T01:56:32.278Z,6.63
2022-10-19T01:59:07.793Z,7.97
2022-10-19T02:01:45.376Z,7.30
2022-10-19T02:04:23.895Z,8.13
2022-10-19T02:06:55.598Z,7.00
2022-10-19T02:09:23.591Z,6.80
2022-10-19T02:12:03.730Z,7.10
2022-10-19T02:14:46.565Z,7.43
2022-10-19T02:17:27.437Z,7.73
2022-10-19T02:19:56.311Z,7.73
2022-10-19T02:22:24.403Z,7.80
2022-10-19T02:24:52.117Z,8.17
2022-10-19T02:27:20.476Z,8.10
2022-10-19T02:29:48.342Z,8.37
2022-10-19T02:32:16.751Z,9.40
2022-10-19T02:34:44.586Z,8.03
2022-10-19T02:37:12.454Z,8.53
2022-10-19T02:39:40.816Z,10.30
2022-10-19T02:42:43.876Z,9.23
2022-10-19T02:45:40.646Z,9.07
2022-10-19T02:48:25.040Z,8.33
2022-10-19T02:50:52.735Z,10.50
2022-10-19T02:53:20.374Z,11.20
2022-10-19T02:55:50.716Z,12.40
2022-10-19T02:58:18.452Z,12.37
2022-10-19T03:00:46.182Z,10.10
2022-10-19T03:03:13.812Z,10.10
2022-10-19T03:05:41.568Z,10.70
2022-10-19T03:08:09.239Z,10.50
2022-10-19T03:10:37.068Z,11.77
2022-10-19T03:13:04.657Z,12.70
2022-10-19T03:15:32.401Z,12.53
2022-10-19T03:18:02.938Z,12.20
2022-10-19T03:20:30.624Z,11.17
2022-10-19T03:22:58.362Z,11.40
2022-10-19T03:25:26.168Z,12.00
2022-10-19T03:27:54.225Z,14.10
2022-10-19T03:30:21.837Z,15.80
2022-10-19T03:32:49.535Z,14.30
2022-10-19T03:35:17.466Z,13.67
2022-10-19T03:37:45.098Z,14.53
2022-10-19T03:40:12.889Z,14.30
2022-10-19T03:42:40.590Z,13.80
2022-10-19T03:45:08.958Z,13.97
2022-10-19T03:47:36.852Z,13.67
2022-10-19T03:50:06.209Z,13.30
2022-10-19T03:52:33.985Z,13.00
2022-10-19T03:55:01.605Z,13.07
2022-10-19T03:57:29.191Z,12.63
2022-10-19T03:59:57.295Z,10.83
2022-10-19T04:02:25.104Z,11.40
2022-10-19T04:04:52.658Z,9.70
2022-10-19T04:07:20.369Z,10.03
2022-10-19T04:09:47.936Z,10.17
2022-10-19T04:12:15.638Z,10.10
2022-10-19T04:14:56.842Z,9.27
2022-10-19T04:17:26.604Z,8.53
2022-10-19T04:19:54.837Z,8.23
2022-10-19T04:22:22.643Z,8.23
2022-10-19T04:24:50.146Z,7.33
2022-10-19T04:27:17.816Z,8.33
2022-10-19T04:29:45.648Z,8.50
2022-10-19T04:32:13.328Z,6.80
2022-10-19T04:34:40.984Z,7.00
2022-10-19T04:37:09.305Z,8.20
2022-10-19T04:39:40.950Z,7.67
2022-10-19T04:42:08.816Z,6.90
2022-10-19T04:44:36.399Z,6.50
2022-10-19T04:47:04.030Z,6.20
2022-10-19T04:49:31.903Z,7.10
2022-10-19T04:51:59.470Z,6.47
2022-10-19T04:54:27.231Z,6.33
2022-10-19T04:56:54.738Z,6.87
2022-10-19T04:59:22.471Z,5.53
2022-10-19T05:01:50.158Z,6.00
2022-10-19T05:04:17.916Z,6.60
2022-10-19T05:06:45.514Z,6.27
2022-10-19T05:09:13.403Z,6.97
2022-10-19T05:11:41.126Z,8.70
2022-10-19T05:14:09.010Z,9.00
2022-10-19T05:16:36.636Z,9.73
2022-10-19T05:19:04.322Z,10.50
2022-10-19T05:21:32.092Z,9.57
2022-10-19T05:24:00.063Z,12.07
2022-10-19T05:26:29.662Z,13.10
2022-10-19T05:29:04.922Z,13.93
2022-10-19T05:31:34.958Z,13.33
2022-10-19T05:34:04.249Z,14.37
2022-10-19T05:36:41.606Z,15.03
2022-10-19T05:39:17.665Z,15.77
2022-10-19T05:41:47.898Z,18.37
2022-10-19T05:44:24.328Z,18.77
2022-10-19T05:46:53.731Z,19.30
2022-10-19T05:49:23.491Z,17.50
2022-10-19T05:51:51.392Z,18.37
2022-10-19T05:54:21.790Z,19.33
2022-10-19T05:56:51.524Z,18.43
2022-10-19T05:59:22.194Z,21.60
2022-10-19T06:01:50.167Z,22.03
2022-10-19T06:06:50.492Z,22.43
2022-10-19T06:09:18.067Z,19.70
2022-10-19T06:11:45.807Z,21.47
2022-10-19T06:14:16.887Z,20.53
2022-10-19T06:16:46.289Z,19.70
2022-10-19T06:19:14.349Z,20.67
2022-10-19T06:21:45.736Z,20.50
2022-10-19T06:24:14.333Z,20.90
2022-10-19T06:26:42.016Z,21.33
2022-10-19T06:29:10.941Z,21.60
2022-10-19T06:31:38.773Z,21.13
2022-10-19T06:34:07.002Z,21.70
2022-10-19T06:36:36.818Z,19.90
2022-10-19T06:39:05.140Z,21.07
2022-10-19T06:41:34.334Z,20.93
2022-10-19T06:44:19.389Z,20.83
2022-10-19T06:46:47.059Z,23.57
2022-10-19T06:49:15.710Z,23.50
2022-10-19T06:51:43.483Z,23.77
2022-10-19T06:54:11.100Z,22.60
2022-10-19T06:56:38.729Z,23.90
2022-10-19T06:59:06.457Z,23.37
2022-10-19T07:01:34.089Z,23.47
2022-10-19T07:04:02.811Z,21.07
2022-10-19T07:06:30.673Z,25.67
2022-10-19T07:08:58.318Z,25.27
2022-10-19T07:11:26.031Z,23.60
2022-10-19T07:13:54.075Z,26.93
2022-10-19T07:16:23.038Z,26.83
2022-10-19T07:18:53.680Z,26.67
2022-10-19T07:21:24.030Z,27.20
2022-10-19T07:23:52.334Z,26.23
2022-10-19T07:26:27.881Z,27.40
2022-10-19T07:28:58.966Z,26.87
2022-10-19T07:31:30.160Z,26.87
2022-10-19T07:34:03.612Z,28.40
2022-10-19T07:36:37.037Z,26.63
2022-10-19T07:39:07.917Z,29.17
2022-10-19T07:41:35.627Z,27.60
2022-10-19T07:44:04.068Z,25.40
2022-10-19T07:46:33.994Z,26.10
2022-10-19T07:49:06.295Z,25.93
2022-10-19T07:51:34.282Z,25.90
2022-10-19T07:54:02.012Z,25.00
2022-10-19T07:56:30.934Z,22.30
2022-10-19T07:59:01.320Z,22.63
2022-10-19T08:01:41.489Z,23.10
2022-10-19T08:06:56.914Z,20.57
2022-10-19T08:12:15.082Z,17.53
2022-10-19T08:14:43.439Z,16.73
2022-10-19T08:17:17.689Z,15.57
2022-10-19T08:19:47.320Z,15.90
2022-10-19T08:22:16.376Z,13.43
2022-10-19T08:24:44.054Z,12.87
2022-10-19T08:27:11.823Z,11.60
2022-10-19T08:29:39.490Z,12.60
2022-10-19T08:32:07.309Z,13.90
2022-10-19T08:34:35.319Z,13.87
2022-10-19T08:37:10.469Z,13.43
2022-10-19T08:39:48.461Z,12.17
2022-10-19T08:43:01.650Z,15.23
2022-10-19T08:45:43.437Z,14.20
2022-10-19T08:48:39.348Z,16.50
2022-10-19T08:51:11.781Z,13.50
2022-10-19T08:54:06.408Z,15.70
2022-10-19T08:57:56.751Z,15.97
2022-10-19T09:01:51.021Z,15.60
2022-10-19T09:04:42.369Z,14.90
2022-10-19T09:07:45.541Z,16.00
2022-10-19T09:10:25.007Z,14.70
2022-10-19T09:13:29.249Z,15.73
2022-10-19T09:16:10.897Z,16.90
2022-10-19T09:18:50.026Z,14.57
2022-10-19T09:21:51.433Z,13.70
2022-10-19T09:24:55.495Z,12.90
2022-10-19T09:27:36.457Z,13.60
2022-10-19T09:30:23.296Z,14.30
2022-10-19T09:33:02.702Z,17.20
2022-10-19T09:35:42.968Z,15.57
2022-10-19T09:38:35.372Z,16.10
2022-10-19T09:41:36.726Z,14.30
2022-10-19T09:44:29.931Z,14.40
2022-10-19T09:47:57.176Z,15.13
2022-10-19T09:50:53.125Z,15.37
2022-10-19T09:53:41.810Z,14.47
2022-10-19T09:56:47.399Z,11.07
2022-10-19T09:59:29.559Z,9.87
2022-10-19T10:02:21.606Z,9.10
2022-10-19T10:05:15.025Z,9.67
2022-10-19T10:07:43.372Z,9.63
2022-10-19T10:11:13.852Z,9.30
2022-10-19T10:19:36.263Z,4.07
2022-10-19T10:22:05.324Z,3.77
2022-10-19T10:24:34.912Z,3.53
2022-10-19T10:27:28.580Z,3.70
2022-10-19T10:29:59.051Z,1.87
2022-10-19T10:32:28.761Z,2.23
2022-10-19T10:35:07.037Z,2.70
2022-10-19T10:37:45.513Z,1.97
2022-10-19T10:40:35.138Z,2.20
2022-10-19T10:43:17.285Z,2.50
2022-10-19T10:45:54.175Z,2.40
2022-10-19T10:48:40.976Z,2.13
2022-10-19T10:51:37.307Z,1.67
2022-10-19T10:54:33.376Z,2.50
2022-10-19T10:57:17.589Z,2.03
2022-10-19T11:00:12.452Z,2.20
2022-10-19T11:03:04.614Z,2.30
2022-10-19T11:05:46.924Z,2.80
2022-10-19T11:09:18.619Z,4.20
2022-10-19T11:11:51.176Z,2.30
2022-10-19T11:15:02.100Z,2.80
2022-10-19T11:17:41.374Z,2.37
2022-10-19T11:20:16.991Z,2.60
2022-10-19T11:23:20.893Z,2.40
2022-10-19T11:26:30.037Z,3.17
2022-10-19T11:29:50.876Z,3.20
2022-10-19T11:32:50.145Z,2.70
2022-10-19T11:36:04.203Z,2.30
2022-10-19T11:39:11.049Z,2.80
2022-10-19T11:42:17.953Z,3.07
2022-10-19T11:45:11.616Z,2.53
2022-10-19T11:48:03.148Z,3.00
2022-10-19T11:50:54.220Z,1.70
2022-10-19T11:54:00.153Z,3.60
2022-10-19T11:57:10.572Z,2.13
2022-10-19T12:00:39.341Z,2.20
2022-10-19T12:04:00.516Z,2.23
2022-10-19T12:07:03.525Z,2.83
2022-10-19T12:10:18.120Z,2.57
2022-10-19T12:12:56.499Z,2.67
2022-10-19T12:15:48.776Z,2.77
2022-10-19T12:18:54.588Z,2.60
2022-10-19T12:21:40.876Z,2.63
2022-10-19T12:24:24.818Z,2.40
2022-10-19T12:26:55.538Z,3.10
2022-10-19T12:29:41.266Z,3.10
2022-10-19T12:32:20.466Z,2.47
2022-10-19T12:35:03.830Z,2.40
2022-10-19T12:38:06.063Z,3.13
2022-10-19T12:41:34.859Z,2.33
2022-10-19T12:44:39.162Z,2.90
2022-10-19T12:47:26.691Z,3.43
2022-10-19T12:50:00.303Z,2.40
2022-10-19T12:52:48.397Z,2.47
2022-10-19T12:55:17.404Z,2.23
2022-10-19T12:58:06.904Z,2.60
2022-10-19T13:00:38.484Z,2.60
2022-10-19T13:03:25.184Z,2.70
2022-10-19T13:06:18.593Z,2.27
2022-10-19T13:09:39.116Z,2.47
2022-10-19T13:12:21.866Z,2.00
2022-10-19T13:15:01.746Z,2.43
2022-10-19T13:17:38.066Z,2.57
2022-10-19T13:20:26.026Z,2.80
2022-10-19T13:23:05.970Z,2.40
2022-10-19T13:25:43.521Z,2.50
2022-10-19T13:28:11.397Z,2.60
2022-10-19T13:30:40.144Z,2.20
2022-10-19T13:33:29.700Z,2.70
2022-10-19T13:36:00.113Z,3.00
2022-10-19T13:38:59.362Z,2.17
2022-10-19T13:41:36.863Z,2.80
2022-10-19T13:44:13.222Z,2.50
2022-10-19T13:47:25.328Z,2.53
2022-10-19T13:50:39.772Z,3.30
2022-10-19T13:54:10.631Z,3.10
2022-10-19T13:58:02.866Z,2.80
2022-10-19T14:01:26.505Z,5.30
2022-10-19T14:04:41.812Z,2.70
2022-10-19T14:07:50.092Z,2.50
2022-10-19T14:10:28.322Z,2.90
2022-10-19T14:13:05.552Z,2.67
2022-10-19T14:15:35.733Z,2.70
2022-10-19T14:18:05.904Z,2.60
2022-10-19T14:20:39.989Z,2.77
2022-10-19T14:23:30.287Z,3.00
2022-10-19T14:26:30.045Z,2.37
2022-10-19T14:29:00.835Z,3.10
2022-10-19T14:31:39.983Z,2.90
2022-10-19T14:34:19.318Z,3.03
2022-10-19T14:36:51.746Z,3.13
2022-10-19T14:39:34.766Z,2.60
2022-10-19T14:42:10.788Z,3.27
2022-10-19T14:44:43.848Z,2.63
2022-10-19T14:47:30.428Z,2.30
2022-10-19T14:49:58.290Z,2.60
2022-10-19T14:52:39.061Z,2.43
2022-10-19T14:55:18.969Z,1.87
2022-10-19T14:57:53.250Z,2.00
2022-10-19T15:03:11.423Z,2.30
2022-10-19T15:05:51.780Z,2.17
2022-10-19T15:08:42.581Z,2.97
2022-10-19T15:11:39.955Z,2.03
2022-10-19T15:14:19.366Z,2.10
2022-10-19T15:17:01.229Z,3.33
2022-10-19T15:19:41.501Z,6.83
2022-10-19T15:22:19.368Z,5.37
2022-10-19T15:25:06.406Z,4.03
2022-10-19T15:27:47.340Z,2.77
2022-10-19T15:30:37.551Z,2.50
2022-10-19T15:33:06.306Z,2.23
2022-10-19T15:35:42.531Z,2.10
2022-10-19T15:38:27.540Z,3.07
2022-10-19T15:41:04.994Z,2.20
2022-10-19T15:43:35.461Z,2.60
2022-10-19T15:46:56.322Z,2.40
2022-10-19T15:49:42.390Z,2.70
2022-10-19T15:52:29.571Z,2.47
2022-10-19T15:55:00.979Z,9.10
2022-10-19T15:57:39.483Z,2.73
2022-10-19T16:00:20.319Z,2.30
2022-10-19T16:02:48.456Z,2.57
2022-10-19T16:05:16.260Z,2.30
2022-10-19T16:07:44.008Z,1.63
2022-10-19T16:10:22.330Z,2.60
2022-10-19T16:12:50.440Z,2.17
2022-10-19T16:15:24.175Z,2.93
2022-10-19T16:18:00.278Z,2.90
2022-10-19T16:20:31.009Z,2.47
2022-10-19T16:22:59.307Z,2.30
2022-10-19T16:25:26.861Z,2.40
2022-10-19T16:27:54.546Z,2.77
2022-10-19T16:30:25.096Z,2.40
2022-10-19T16:32:54.321Z,2.87
2022-10-19T16:35:22.403Z,2.33
2022-10-19T16:37:50.187Z,2.80
2022-10-19T16:40:17.952Z,3.30
2022-10-19T16:42:45.612Z,2.77
2022-10-19T16:45:13.433Z,3.27
2022-10-19T16:47:41.713Z,3.10
2022-10-19T16:50:11.904Z,3.20
2022-10-19T16:52:39.715Z,3.00
2022-10-19T16:55:08.682Z,3.47
2022-10-19T16:57:37.373Z,3.10
2022-10-19T17:00:09.719Z,2.80
2022-10-19T17:02:41.947Z,3.50
2022-10-19T17:05:11.979Z,3.77
2022-10-19T17:07:39.735Z,3.50
2022-10-19T17:10:08.099Z,4.90
2022-10-19T17:12:36.210Z,4.47
2022-10-19T17:15:37.185Z,4.00
2022-10-19T17:17:52.854Z,3.37
2022-10-19T17:20:20.997Z,5.20
2022-10-19T17:22:52.095Z,3.80
2022-10-19T17:25:20.044Z,5.33
2022-10-19T17:27:52.468Z,5.07
2022-10-19T17:30:20.589Z,8.23
2022-10-19T17:32:49.762Z,3.70
2022-10-19T17:35:17.731Z,3.50
2022-10-19T17:37:45.388Z,3.30
2022-10-19T17:40:13.415Z,3.90
2022-10-19T17:42:41.525Z,3.57
2022-10-19T17:45:10.389Z,4.27
2022-10-19T17:47:38.238Z,3.83
2022-10-19T17:50:07.127Z,5.47
2022-10-19T17:52:34.893Z,4.37
2022-10-19T17:55:18.735Z,4.30
2022-10-19T17:57:50.489Z,4.17
2022-10-19T18:00:19.116Z,4.20
2022-10-19T18:02:46.900Z,4.40
2022-10-19T18:05:14.785Z,4.30
2022-10-19T18:07:44.518Z,3.93
2022-10-19T18:10:12.468Z,4.50
2022-10-19T18:12:40.167Z,4.37
2022-10-19T18:15:08.883Z,4.90
2022-10-19T18:17:36.732Z,4.30
2022-10-19T18:20:05.886Z,5.00
2022-10-19T18:22:33.574Z,4.40
2022-10-19T18:25:01.685Z,5.10
2022-10-19T18:27:29.430Z,5.37
2022-10-19T18:29:57.094Z,4.27
2022-10-19T18:32:25.536Z,4.43
2022-10-19T18:34:53.242Z,4.73
2022-10-19T18:37:21.041Z,4.53
2022-10-19T18:39:48.996Z,6.20
2022-10-19T18:42:17.849Z,5.13
2022-10-19T18:44:47.586Z,6.00
2022-10-19T18:47:15.399Z,4.37
2022-10-19T18:49:43.065Z,5.17
2022-10-19T18:52:10.985Z,3.77
2022-10-19T18:54:39.260Z,4.40
2022-10-19T18:57:06.836Z,5.13
2022-10-19T18:59:34.455Z,4.87
2022-10-19T19:02:02.269Z,4.00
2022-10-19T19:04:30.316Z,4.60
2022-10-19T19:06:57.918Z,4.77
2022-10-19T19:09:25.557Z,4.47
2022-10-19T19:11:54.430Z,5.17
2022-10-19T19:14:22.240Z,5.43
2022-10-19T19:16:50.316Z,5.20
2022-10-19T19:19:20.494Z,4.57
2022-10-19T19:21:50.010Z,4.13
2022-10-19T19:24:22.300Z,4.70
2022-10-19T19:26:54.995Z,5.23
2022-10-19T19:29:25.703Z,4.87
2022-10-19T19:31:53.670Z,4.43
2022-10-19T19:34:21.497Z,4.83
2022-10-19T19:36:49.365Z,5.00
2022-10-19T19:39:21.373Z,4.50
2022-10-19T19:41:51.031Z,4.33
2022-10-19T19:44:20.168Z,4.67
2022-10-19T19:46:48.181Z,4.80
2022-10-19T19:49:16.333Z,5.27
2022-10-19T19:51:44.017Z,4.87
2022-10-19T19:54:12.481Z,5.40
2022-10-19T19:56:42.434Z,5.77
2022-10-19T19:59:13.107Z,5.10
2022-10-19T20:01:42.352Z,4.77
2022-10-19T20:04:11.374Z,5.10
2022-10-19T20:06:41.322Z,5.20
2022-10-19T20:09:10.786Z,5.50
2022-10-19T20:11:42.439Z,8.00
2022-10-19T20:14:12.376Z,6.33
2022-10-19T20:16:40.300Z,5.07
2022-10-19T20:19:14.378Z,6.40
2022-10-19T20:21:43.176Z,7.73
2022-10-19T20:24:11.383Z,6.47
2022-10-19T20:26:40.029Z,9.70
2022-10-19T20:29:07.734Z,7.90
2022-10-19T20:31:39.698Z,5.40
2022-10-19T20:34:12.358Z,5.97
2022-10-19T20:36:40.848Z,5.90
2022-10-19T20:39:09.571Z,6.77
2022-10-19T20:41:37.739Z,7.27
2022-10-19T20:44:05.662Z,7.70
2022-10-19T20:46:34.263Z,6.77
2022-10-19T20:49:02.796Z,10.33
2022-10-19T20:51:39.447Z,9.27
2022-10-19T20:54:12.788Z,10.27
2022-10-19T20:56:42.840Z,10.87
2022-10-19T20:59:20.764Z,11.17
2022-10-19T21:01:56.020Z,11.80
2022-10-19T21:04:28.366Z,9.97
2022-10-19T21:06:56.029Z,11.10
2022-10-19T21:09:26.168Z,13.77
2022-10-19T21:11:53.870Z,9.60
2022-10-19T21:14:29.058Z,10.67
2022-10-19T21:16:59.993Z,11.80
2022-10-19T21:19:31.277Z,12.60
2022-10-19T21:22:02.605Z,9.60
2022-10-19T21:24:37.064Z,9.37
2022-10-19T21:27:09.791Z,10.07
2022-10-19T21:29:38.125Z,8.20
2022-10-19T21:32:05.932Z,8.83
2022-10-19T21:34:33.708Z,8.33
2022-10-19T21:37:01.697Z,8.63
2022-10-19T21:39:29.264Z,11.37
2022-10-19T21:41:58.092Z,9.20
2022-10-19T21:44:25.757Z,9.67
2022-10-19T21:46:53.569Z,8.83
2022-10-19T21:49:21.140Z,8.47
2022-10-19T21:51:54.785Z,9.03
2022-10-19T21:54:25.879Z,8.90
2022-10-19T21:56:55.165Z,7.83
2022-10-19T21:59:22.967Z,8.47
2022-10-19T22:01:50.661Z,8.07
2022-10-19T22:04:18.978Z,7.80
2022-10-19T22:06:47.648Z,9.17
2022-10-19T22:09:21.671Z,7.83
2022-10-19T22:11:50.081Z,7.87
2022-10-19T22:14:19.036Z,6.97
2022-10-19T22:16:46.796Z,8.47
2022-10-19T22:19:14.658Z,7.37
2022-10-19T22:21:42.762Z,8.43
2022-10-19T22:24:16.033Z,7.33
2022-10-19T22:26:50.953Z,8.50
2022-10-19T22:29:19.219Z,7.50
2022-10-19T22:31:46.857Z,6.97
2022-10-19T22:34:18.485Z,7.30
2022-10-19T22:36:46.496Z,8.13
2022-10-19T22:39:16.512Z,8.63
2022-10-19T22:41:44.170Z,7.20
2022-10-19T22:44:11.919Z,8.23
2022-10-19T22:46:42.583Z,7.20
2022-10-19T22:49:10.834Z,8.47
2022-10-19T22:51:38.525Z,8.50
2022-10-19T22:54:07.057Z,8.57
2022-10-19T22:56:34.734Z,8.37
2022-10-19T22:59:06.854Z,7.83
2022-10-19T23:01:36.306Z,7.80
2022-10-19T23:04:04.420Z,9.27
2022-10-19T23:06:32.335Z,8.73
2022-10-19T23:09:00.006Z,8.60
2022-10-19T23:11:27.847Z,8.87
2022-10-19T23:13:55.999Z,9.50
2022-10-19T23:16:23.591Z,7.70
2022-10-19T23:18:51.257Z,7.83
2022-10-19T23:21:19.489Z,8.10
2022-10-19T23:23:47.222Z,8.70
2022-10-19T23:26:20.645Z,8.60
2022-10-19T23:28:51.300Z,8.47
2022-10-19T23:31:30.100Z,9.47
2022-10-19T23:33:58.408Z,9.47
2022-10-19T23:36:29.568Z,9.20
2022-10-19T23:38:59.081Z,8.43
2022-10-19T23:41:27.324Z,8.57
2022-10-19T23:43:59.207Z,9.23
2022-10-19T23:46:27.303Z,8.40
2022-10-19T23:48:54.884Z,8.43
2022-10-19T23:51:24.066Z,8.57
2022-10-19T23:53:53.482Z,9.60
2022-10-19T23:56:29.820Z,8.47
2022-10-19T23:58:57.799Z,8.20
